sensor_id;sensor_type;location;lat;lon;timestamp;P1;durP1;ratioP1;P2;durP2;ratioP2
13807;SDS011;40769;51.512;5.494;2023-07-29T00:00:34;2.10;;;2.00;;
13807;SDS011;40769;51.512;5.494;2023-07-29T00:02:59;2.55;;;2.20;;
13807;SDS011;40769;51.512;5.494;2023-07-29T00:05:25;1.73;;;1.63;;
13807;SDS011;40769;51.512;5.494;2023-07-29T00:07:51;2.22;;;2.03;;
13807;SDS011;40769;51.512;5.494;2023-07-29T00:10:16;2.80;;;2.60;;
13807;SDS011;40769;51.512;5.494;2023-07-29T00:12:42;2.92;;;2.72;;
13807;SDS011;40769;51.512;5.494;2023-07-29T00:15:08;2.65;;;2.45;;
13807;SDS011;40769;51.512;5.494;2023-07-29T00:17:34;2.75;;;2.50;;
13807;SDS011;40769;51.512;5.494;2023-07-29T00:19:59;2.50;;;2.30;;
13807;SDS011;40769;51.512;5.494;2023-07-29T00:22:25;2.63;;;2.42;;
13807;SDS011;40769;51.512;5.494;2023-07-29T00:24:51;3.65;;;3.35;;
13807;SDS011;40769;51.512;5.494;2023-07-29T00:27:20;3.67;;;3.38;;
13807;SDS011;40769;51.512;5.494;2023-07-29T00:29:46;2.42;;;2.22;;
13807;SDS011;40769;51.512;5.494;2023-07-29T00:32:12;2.92;;;2.67;;
13807;SDS011;40769;51.512;5.494;2023-07-29T00:34:37;2.50;;;2.30;;
13807;SDS011;40769;51.512;5.494;2023-07-29T00:37:03;3.17;;;2.88;;
13807;SDS011;40769;51.512;5.494;2023-07-29T00:39:30;2.97;;;2.65;;
13807;SDS011;40769;51.512;5.494;2023-07-29T00:41:57;2.35;;;2.08;;
13807;SDS011;40769;51.512;5.494;2023-07-29T00:44:22;1.88;;;1.77;;
13807;SDS011;40769;51.512;5.494;2023-07-29T00:46:49;2.15;;;1.98;;
13807;SDS011;40769;51.512;5.494;2023-07-29T00:49:18;2.00;;;1.80;;
13807;SDS011;40769;51.512;5.494;2023-07-29T00:51:44;2.35;;;2.08;;
13807;SDS011;40769;51.512;5.494;2023-07-29T00:54:10;2.00;;;1.85;;
13807;SDS011;40769;51.512;5.494;2023-07-29T00:56:36;2.38;;;2.15;;
13807;SDS011;40769;51.512;5.494;2023-07-29T00:59:02;1.98;;;1.83;;
13807;SDS011;40769;51.512;5.494;2023-07-29T01:01:29;2.92;;;2.72;;
13807;SDS011;40769;51.512;5.494;2023-07-29T01:03:56;2.60;;;2.40;;
13807;SDS011;40769;51.512;5.494;2023-07-29T01:09:53;2.17;;;2.05;;
13807;SDS011;40769;51.512;5.494;2023-07-29T01:12:18;2.25;;;2.05;;
13807;SDS011;40769;51.512;5.494;2023-07-29T01:14:52;2.50;;;2.30;;
13807;SDS011;40769;51.512;5.494;2023-07-29T01:17:44;2.22;;;2.13;;
13807;SDS011;40769;51.512;5.494;2023-07-29T01:20:16;2.00;;;1.90;;
13807;SDS011;40769;51.512;5.494;2023-07-29T01:22:45;2.67;;;2.35;;
13807;SDS011;40769;51.512;5.494;2023-07-29T01:25:12;2.40;;;2.22;;
13807;SDS011;40769;51.512;5.494;2023-07-29T01:27:38;3.13;;;2.35;;
13807;SDS011;40769;51.512;5.494;2023-07-29T01:30:04;3.08;;;2.88;;
13807;SDS011;40769;51.512;5.494;2023-07-29T01:37:53;3.40;;;3.17;;
13807;SDS011;40769;51.512;5.494;2023-07-29T01:40:25;4.20;;;3.90;;
13807;SDS011;40769;51.512;5.494;2023-07-29T01:42:53;3.72;;;3.42;;
13807;SDS011;40769;51.512;5.494;2023-07-29T01:45:21;4.97;;;4.57;;
13807;SDS011;40769;51.512;5.494;2023-07-29T01:47:49;6.20;;;5.60;;
13807;SDS011;40769;51.512;5.494;2023-07-29T01:50:15;5.22;;;4.82;;
13807;SDS011;40769;51.512;5.494;2023-07-29T01:52:40;5.05;;;4.60;;
13807;SDS011;40769;51.512;5.494;2023-07-29T01:55:06;3.90;;;3.60;;
13807;SDS011;40769;51.512;5.494;2023-07-29T01:57:32;4.32;;;3.92;;
13807;SDS011;40769;51.512;5.494;2023-07-29T02:00:02;3.95;;;3.65;;
13807;SDS011;40769;51.512;5.494;2023-07-29T02:02:29;3.80;;;3.40;;
13807;SDS011;40769;51.512;5.494;2023-07-29T02:04:54;4.00;;;3.70;;
13807;SDS011;40769;51.512;5.494;2023-07-29T02:07:21;3.95;;;3.50;;
13807;SDS011;40769;51.512;5.494;2023-07-29T02:09:46;3.20;;;2.90;;
13807;SDS011;40769;51.512;5.494;2023-07-29T02:12:12;3.63;;;3.33;;
13807;SDS011;40769;51.512;5.494;2023-07-29T02:14:38;3.30;;;3.08;;
13807;SDS011;40769;51.512;5.494;2023-07-29T02:17:04;3.38;;;3.08;;
13807;SDS011;40769;51.512;5.494;2023-07-29T02:19:29;3.38;;;3.08;;
13807;SDS011;40769;51.512;5.494;2023-07-29T02:21:55;3.53;;;3.22;;
13807;SDS011;40769;51.512;5.494;2023-07-29T02:24:21;3.50;;;3.20;;
13807;SDS011;40769;51.512;5.494;2023-07-29T02:26:46;3.42;;;2.92;;
13807;SDS011;40769;51.512;5.494;2023-07-29T02:29:12;3.35;;;3.05;;
13807;SDS011;40769;51.512;5.494;2023-07-29T02:31:38;2.80;;;2.60;;
13807;SDS011;40769;51.512;5.494;2023-07-29T02:34:04;2.78;;;2.58;;
13807;SDS011;40769;51.512;5.494;2023-07-29T02:36:29;3.38;;;3.08;;
13807;SDS011;40769;51.512;5.494;2023-07-29T02:38:55;3.75;;;3.00;;
13807;SDS011;40769;51.512;5.494;2023-07-29T02:41:21;2.55;;;2.28;;
13807;SDS011;40769;51.512;5.494;2023-07-29T02:43:50;2.70;;;2.50;;
13807;SDS011;40769;51.512;5.494;2023-07-29T02:46:16;2.75;;;2.28;;
13807;SDS011;40769;51.512;5.494;2023-07-29T02:48:43;2.58;;;2.38;;
13807;SDS011;40769;51.512;5.494;2023-07-29T02:51:09;2.22;;;2.08;;
13807;SDS011;40769;51.512;5.494;2023-07-29T02:53:35;3.08;;;2.22;;
13807;SDS011;40769;51.512;5.494;2023-07-29T02:56:04;2.60;;;2.40;;
13807;SDS011;40769;51.512;5.494;2023-07-29T02:58:31;3.38;;;2.13;;
13807;SDS011;40769;51.512;5.494;2023-07-29T03:01:00;2.22;;;2.03;;
13807;SDS011;40769;51.512;5.494;2023-07-29T03:03:27;3.72;;;2.58;;
13807;SDS011;40769;51.512;5.494;2023-07-29T03:06:03;2.45;;;2.25;;
13807;SDS011;40769;51.512;5.494;2023-07-29T03:08:33;4.32;;;4.03;;
13807;SDS011;40769;51.512;5.494;2023-07-29T03:11:04;3.63;;;3.33;;
13807;SDS011;40769;51.512;5.494;2023-07-29T03:13:31;3.75;;;3.45;;
13807;SDS011;40769;51.512;5.494;2023-07-29T03:16:13;3.22;;;3.03;;
13807;SDS011;40769;51.512;5.494;2023-07-29T03:18:41;3.55;;;3.25;;
13807;SDS011;40769;51.512;5.494;2023-07-29T03:21:07;3.78;;;3.00;;
13807;SDS011;40769;51.512;5.494;2023-07-29T03:23:33;3.60;;;3.30;;
13807;SDS011;40769;51.512;5.494;2023-07-29T03:26:00;2.97;;;2.60;;
13807;SDS011;40769;51.512;5.494;2023-07-29T03:28:29;2.40;;;2.20;;
13807;SDS011;40769;51.512;5.494;2023-07-29T03:30:57;2.60;;;2.40;;
13807;SDS011;40769;51.512;5.494;2023-07-29T03:33:24;3.45;;;3.15;;
13807;SDS011;40769;51.512;5.494;2023-07-29T03:35:51;4.43;;;3.60;;
13807;SDS011;40769;51.512;5.494;2023-07-29T03:38:17;3.63;;;3.17;;
13807;SDS011;40769;51.512;5.494;2023-07-29T03:40:43;4.65;;;4.28;;
13807;SDS011;40769;51.512;5.494;2023-07-29T03:43:09;5.07;;;4.68;;
13807;SDS011;40769;51.512;5.494;2023-07-29T03:45:35;4.20;;;3.80;;
13807;SDS011;40769;51.512;5.494;2023-07-29T03:48:02;3.80;;;3.50;;
13807;SDS011;40769;51.512;5.494;2023-07-29T03:50:28;4.30;;;4.00;;
13807;SDS011;40769;51.512;5.494;2023-07-29T03:52:54;4.50;;;4.13;;
13807;SDS011;40769;51.512;5.494;2023-07-29T03:55:20;4.30;;;4.00;;
13807;SDS011;40769;51.512;5.494;2023-07-29T03:57:46;12.10;;;3.72;;
13807;SDS011;40769;51.512;5.494;2023-07-29T04:00:12;3.50;;;3.20;;
13807;SDS011;40769;51.512;5.494;2023-07-29T04:02:38;3.47;;;3.17;;
13807;SDS011;40769;51.512;5.494;2023-07-29T04:05:04;3.03;;;2.83;;
13807;SDS011;40769;51.512;5.494;2023-07-29T04:07:33;3.00;;;2.45;;
13807;SDS011;40769;51.512;5.494;2023-07-29T04:09:59;2.22;;;2.03;;
13807;SDS011;40769;51.512;5.494;2023-07-29T04:12:26;2.28;;;2.08;;
13807;SDS011;40769;51.512;5.494;2023-07-29T04:14:51;2.90;;;2.70;;
13807;SDS011;40769;51.512;5.494;2023-07-29T04:17:17;2.83;;;2.63;;
13807;SDS011;40769;51.512;5.494;2023-07-29T04:19:43;2.17;;;2.08;;
13807;SDS011;40769;51.512;5.494;2023-07-29T04:22:08;3.25;;;3.03;;
13807;SDS011;40769;51.512;5.494;2023-07-29T04:24:37;2.95;;;2.65;;
13807;SDS011;40769;51.512;5.494;2023-07-29T04:27:03;2.85;;;2.65;;
13807;SDS011;40769;51.512;5.494;2023-07-29T04:29:32;3.25;;;2.60;;
13807;SDS011;40769;51.512;5.494;2023-07-29T04:31:58;3.20;;;2.70;;
13807;SDS011;40769;51.512;5.494;2023-07-29T04:34:23;2.65;;;2.45;;
13807;SDS011;40769;51.512;5.494;2023-07-29T04:36:49;2.28;;;2.05;;
13807;SDS011;40769;51.512;5.494;2023-07-29T04:39:15;2.22;;;2.03;;
13807;SDS011;40769;51.512;5.494;2023-07-29T04:41:40;2.00;;;1.90;;
13807;SDS011;40769;51.512;5.494;2023-07-29T04:44:06;2.17;;;2.03;;
13807;SDS011;40769;51.512;5.494;2023-07-29T04:46:32;2.55;;;2.35;;
13807;SDS011;40769;51.512;5.494;2023-07-29T04:48:58;2.30;;;2.15;;
13807;SDS011;40769;51.512;5.494;2023-07-29T04:51:24;1.95;;;1.85;;
13807;SDS011;40769;51.512;5.494;2023-07-29T04:53:50;2.10;;;2.00;;
13807;SDS011;40769;51.512;5.494;2023-07-29T04:56:16;2.60;;;2.25;;
13807;SDS011;40769;51.512;5.494;2023-07-29T04:58:41;2.78;;;2.55;;
13807;SDS011;40769;51.512;5.494;2023-07-29T05:01:07;2.60;;;2.40;;
13807;SDS011;40769;51.512;5.494;2023-07-29T05:03:33;2.05;;;1.85;;
13807;SDS011;40769;51.512;5.494;2023-07-29T05:05:58;2.47;;;2.28;;
13807;SDS011;40769;51.512;5.494;2023-07-29T05:08:25;2.30;;;2.10;;
13807;SDS011;40769;51.512;5.494;2023-07-29T05:10:53;2.50;;;2.30;;
13807;SDS011;40769;51.512;5.494;2023-07-29T05:13:21;2.05;;;1.90;;
13807;SDS011;40769;51.512;5.494;2023-07-29T05:15:47;1.83;;;1.73;;
13807;SDS011;40769;51.512;5.494;2023-07-29T05:18:16;2.30;;;2.10;;
13807;SDS011;40769;51.512;5.494;2023-07-29T05:20:46;1.98;;;1.88;;
13807;SDS011;40769;51.512;5.494;2023-07-29T05:23:12;2.40;;;2.20;;
13807;SDS011;40769;51.512;5.494;2023-07-29T05:25:38;2.08;;;1.98;;
13807;SDS011;40769;51.512;5.494;2023-07-29T05:28:04;2.33;;;2.13;;
13807;SDS011;40769;51.512;5.494;2023-07-29T05:30:29;2.53;;;2.30;;
13807;SDS011;40769;51.512;5.494;2023-07-29T05:33:01;2.47;;;2.28;;
13807;SDS011;40769;51.512;5.494;2023-07-29T05:35:27;2.35;;;2.15;;
13807;SDS011;40769;51.512;5.494;2023-07-29T05:37:52;2.40;;;2.20;;
13807;SDS011;40769;51.512;5.494;2023-07-29T05:40:18;2.45;;;2.25;;
13807;SDS011;40769;51.512;5.494;2023-07-29T05:42:44;2.53;;;2.33;;
13807;SDS011;40769;51.512;5.494;2023-07-29T05:45:10;2.72;;;2.30;;
13807;SDS011;40769;51.512;5.494;2023-07-29T05:47:36;2.20;;;2.05;;
13807;SDS011;40769;51.512;5.494;2023-07-29T05:50:02;2.30;;;2.10;;
13807;SDS011;40769;51.512;5.494;2023-07-29T05:52:29;2.50;;;2.30;;
13807;SDS011;40769;51.512;5.494;2023-07-29T05:54:55;2.33;;;2.10;;
13807;SDS011;40769;51.512;5.494;2023-07-29T05:57:21;2.38;;;2.17;;
13807;SDS011;40769;51.512;5.494;2023-07-29T05:59:47;2.35;;;2.15;;
13807;SDS011;40769;51.512;5.494;2023-07-29T06:02:13;2.53;;;2.10;;
13807;SDS011;40769;51.512;5.494;2023-07-29T06:04:38;4.47;;;2.45;;
13807;SDS011;40769;51.512;5.494;2023-07-29T06:07:04;2.42;;;2.00;;
13807;SDS011;40769;51.512;5.494;2023-07-29T06:09:30;2.28;;;2.08;;
13807;SDS011;40769;51.512;5.494;2023-07-29T06:11:56;2.45;;;2.25;;
13807;SDS011;40769;51.512;5.494;2023-07-29T06:14:22;2.08;;;1.80;;
13807;SDS011;40769;51.512;5.494;2023-07-29T06:16:47;2.22;;;2.03;;
13807;SDS011;40769;51.512;5.494;2023-07-29T06:19:13;2.40;;;2.20;;
13807;SDS011;40769;51.512;5.494;2023-07-29T06:21:38;2.35;;;2.15;;
13807;SDS011;40769;51.512;5.494;2023-07-29T06:24:06;2.50;;;2.30;;
13807;SDS011;40769;51.512;5.494;2023-07-29T06:26:35;2.40;;;2.05;;
13807;SDS011;40769;51.512;5.494;2023-07-29T06:29:01;2.30;;;2.10;;
13807;SDS011;40769;51.512;5.494;2023-07-29T06:31:26;2.38;;;2.05;;
13807;SDS011;40769;51.512;5.494;2023-07-29T06:33:52;2.50;;;2.30;;
13807;SDS011;40769;51.512;5.494;2023-07-29T06:36:19;2.45;;;2.05;;
13807;SDS011;40769;51.512;5.494;2023-07-29T06:38:45;2.50;;;2.30;;
13807;SDS011;40769;51.512;5.494;2023-07-29T06:41:11;3.47;;;2.25;;
13807;SDS011;40769;51.512;5.494;2023-07-29T06:43:36;2.30;;;2.15;;
13807;SDS011;40769;51.512;5.494;2023-07-29T06:46:02;2.38;;;2.13;;
13807;SDS011;40769;51.512;5.494;2023-07-29T06:48:28;2.50;;;2.30;;
13807;SDS011;40769;51.512;5.494;2023-07-29T06:50:54;2.78;;;2.10;;
13807;SDS011;40769;51.512;5.494;2023-07-29T06:53:20;2.80;;;1.98;;
13807;SDS011;40769;51.512;5.494;2023-07-29T06:55:46;1.95;;;1.75;;
13807;SDS011;40769;51.512;5.494;2023-07-29T06:58:12;1.92;;;1.75;;
13807;SDS011;40769;51.512;5.494;2023-07-29T07:00:38;2.60;;;2.00;;
13807;SDS011;40769;51.512;5.494;2023-07-29T07:03:03;2.22;;;1.77;;
13807;SDS011;40769;51.512;5.494;2023-07-29T07:05:29;1.90;;;1.70;;
13807;SDS011;40769;51.512;5.494;2023-07-29T07:07:55;3.05;;;1.80;;
13807;SDS011;40769;51.512;5.494;2023-07-29T07:10:20;1.88;;;1.70;;
13807;SDS011;40769;51.512;5.494;2023-07-29T07:12:46;1.92;;;1.60;;
13807;SDS011;40769;51.512;5.494;2023-07-29T07:15:12;2.40;;;1.40;;
13807;SDS011;40769;51.512;5.494;2023-07-29T07:17:38;1.90;;;1.80;;
13807;SDS011;40769;51.512;5.494;2023-07-29T07:20:04;2.40;;;2.13;;
13807;SDS011;40769;51.512;5.494;2023-07-29T07:22:31;1.75;;;1.40;;
13807;SDS011;40769;51.512;5.494;2023-07-29T07:24:58;1.55;;;1.40;;
13807;SDS011;40769;51.512;5.494;2023-07-29T07:27:24;3.08;;;1.77;;
13807;SDS011;40769;51.512;5.494;2023-07-29T07:29:49;2.10;;;1.90;;
13807;SDS011;40769;51.512;5.494;2023-07-29T07:32:15;1.70;;;1.58;;
13807;SDS011;40769;51.512;5.494;2023-07-29T07:34:41;1.60;;;1.50;;
13807;SDS011;40769;51.512;5.494;2023-07-29T07:37:06;1.50;;;1.40;;
13807;SDS011;40769;51.512;5.494;2023-07-29T07:39:32;2.30;;;1.80;;
13807;SDS011;40769;51.512;5.494;2023-07-29T07:41:58;1.52;;;1.42;;
13807;SDS011;40769;51.512;5.494;2023-07-29T07:44:23;2.22;;;1.67;;
13807;SDS011;40769;51.512;5.494;2023-07-29T07:46:51;2.25;;;1.70;;
13807;SDS011;40769;51.512;5.494;2023-07-29T07:49:17;1.83;;;1.60;;
13807;SDS011;40769;51.512;5.494;2023-07-29T07:51:43;1.85;;;1.40;;
13807;SDS011;40769;51.512;5.494;2023-07-29T07:54:09;1.80;;;1.63;;
13807;SDS011;40769;51.512;5.494;2023-07-29T07:56:35;2.30;;;1.70;;
13807;SDS011;40769;51.512;5.494;2023-07-29T07:59:00;1.50;;;1.25;;
13807;SDS011;40769;51.512;5.494;2023-07-29T08:01:26;2.75;;;1.40;;
13807;SDS011;40769;51.512;5.494;2023-07-29T08:03:52;1.30;;;1.20;;
13807;SDS011;40769;51.512;5.494;2023-07-29T08:06:17;2.17;;;1.30;;
13807;SDS011;40769;51.512;5.494;2023-07-29T08:08:43;1.65;;;1.52;;
13807;SDS011;40769;51.512;5.494;2023-07-29T08:11:08;1.42;;;1.33;;
13807;SDS011;40769;51.512;5.494;2023-07-29T08:13:38;1.30;;;1.20;;
13807;SDS011;40769;51.512;5.494;2023-07-29T08:16:03;1.35;;;1.25;;
13807;SDS011;40769;51.512;5.494;2023-07-29T08:18:29;1.42;;;1.33;;
13807;SDS011;40769;51.512;5.494;2023-07-29T08:20:55;2.28;;;1.42;;
13807;SDS011;40769;51.512;5.494;2023-07-29T08:23:33;1.40;;;1.20;;
13807;SDS011;40769;51.512;5.494;2023-07-29T08:26:03;1.80;;;1.30;;
13807;SDS011;40769;51.512;5.494;2023-07-29T08:28:34;2.00;;;1.10;;
13807;SDS011;40769;51.512;5.494;2023-07-29T08:31:01;1.20;;;1.10;;
13807;SDS011;40769;51.512;5.494;2023-07-29T08:33:27;1.20;;;1.08;;
13807;SDS011;40769;51.512;5.494;2023-07-29T08:35:53;1.27;;;1.15;;
13807;SDS011;40769;51.512;5.494;2023-07-29T08:38:19;1.52;;;1.15;;
13807;SDS011;40769;51.512;5.494;2023-07-29T08:40:53;1.55;;;1.20;;
13807;SDS011;40769;51.512;5.494;2023-07-29T08:43:29;0.90;;;0.80;;
13807;SDS011;40769;51.512;5.494;2023-07-29T08:45:56;1.20;;;0.80;;
13807;SDS011;40769;51.512;5.494;2023-07-29T08:48:30;1.75;;;1.30;;
13807;SDS011;40769;51.512;5.494;2023-07-29T08:51:08;2.13;;;1.30;;
13807;SDS011;40769;51.512;5.494;2023-07-29T08:53:35;1.25;;;1.13;;
13807;SDS011;40769;51.512;5.494;2023-07-29T08:56:01;1.10;;;1.00;;
13807;SDS011;40769;51.512;5.494;2023-07-29T08:58:27;1.20;;;1.10;;
13807;SDS011;40769;51.512;5.494;2023-07-29T09:00:54;1.42;;;1.10;;
13807;SDS011;40769;51.512;5.494;2023-07-29T09:03:20;1.23;;;1.13;;
13807;SDS011;40769;51.512;5.494;2023-07-29T09:05:46;1.55;;;1.10;;
13807;SDS011;40769;51.512;5.494;2023-07-29T09:08:13;0.95;;;0.90;;
13807;SDS011;40769;51.512;5.494;2023-07-29T09:10:38;1.20;;;1.10;;
13807;SDS011;40769;51.512;5.494;2023-07-29T09:13:04;1.20;;;1.10;;
13807;SDS011;40769;51.512;5.494;2023-07-29T09:15:31;1.80;;;0.98;;
13807;SDS011;40769;51.512;5.494;2023-07-29T09:17:58;1.27;;;1.10;;
13807;SDS011;40769;51.512;5.494;2023-07-29T09:20:33;1.38;;;1.17;;
13807;SDS011;40769;51.512;5.494;2023-07-29T09:22:59;1.20;;;1.10;;
13807;SDS011;40769;51.512;5.494;2023-07-29T09:25:29;1.13;;;1.02;;
13807;SDS011;40769;51.512;5.494;2023-07-29T09:28:01;1.60;;;1.20;;
13807;SDS011;40769;51.512;5.494;2023-07-29T09:30:34;1.20;;;1.10;;
13807;SDS011;40769;51.512;5.494;2023-07-29T09:33:00;1.20;;;0.93;;
13807;SDS011;40769;51.512;5.494;2023-07-29T09:35:27;1.58;;;0.93;;
13807;SDS011;40769;51.512;5.494;2023-07-29T09:37:55;1.17;;;1.05;;
13807;SDS011;40769;51.512;5.494;2023-07-29T09:40:20;1.30;;;1.20;;
13807;SDS011;40769;51.512;5.494;2023-07-29T09:42:50;1.25;;;1.15;;
13807;SDS011;40769;51.512;5.494;2023-07-29T09:47:49;1.08;;;0.90;;
13807;SDS011;40769;51.512;5.494;2023-07-29T09:50:16;1.73;;;1.20;;
13807;SDS011;40769;51.512;5.494;2023-07-29T09:52:42;1.30;;;1.20;;
13807;SDS011;40769;51.512;5.494;2023-07-29T09:55:12;1.45;;;1.00;;
13807;SDS011;40769;51.512;5.494;2023-07-29T09:57:39;1.83;;;1.17;;
13807;SDS011;40769;51.512;5.494;2023-07-29T10:00:05;1.33;;;1.20;;
13807;SDS011;40769;51.512;5.494;2023-07-29T10:02:36;1.20;;;1.10;;
13807;SDS011;40769;51.512;5.494;2023-07-29T10:05:08;1.30;;;1.15;;
13807;SDS011;40769;51.512;5.494;2023-07-29T10:07:36;1.95;;;1.20;;
13807;SDS011;40769;51.512;5.494;2023-07-29T10:10:06;1.45;;;1.05;;
13807;SDS011;40769;51.512;5.494;2023-07-29T10:12:33;1.48;;;1.10;;
13807;SDS011;40769;51.512;5.494;2023-07-29T10:15:04;1.58;;;1.15;;
13807;SDS011;40769;51.512;5.494;2023-07-29T10:17:33;1.38;;;1.17;;
13807;SDS011;40769;51.512;5.494;2023-07-29T10:20:01;1.33;;;1.23;;
13807;SDS011;40769;51.512;5.494;2023-07-29T10:22:29;1.05;;;0.98;;
13807;SDS011;40769;51.512;5.494;2023-07-29T10:25:21;1.48;;;1.17;;
13807;SDS011;40769;51.512;5.494;2023-07-29T10:27:56;0.90;;;0.88;;
13807;SDS011;40769;51.512;5.494;2023-07-29T10:30:29;1.10;;;1.00;;
13807;SDS011;40769;51.512;5.494;2023-07-29T10:32:57;1.15;;;1.05;;
13807;SDS011;40769;51.512;5.494;2023-07-29T10:35:29;1.38;;;1.10;;
13807;SDS011;40769;51.512;5.494;2023-07-29T10:37:58;1.20;;;1.10;;
13807;SDS011;40769;51.512;5.494;2023-07-29T10:40:25;1.20;;;1.10;;
13807;SDS011;40769;51.512;5.494;2023-07-29T10:43:10;1.67;;;1.52;;
13807;SDS011;40769;51.512;5.494;2023-07-29T10:45:40;1.38;;;1.27;;
13807;SDS011;40769;51.512;5.494;2023-07-29T10:48:10;1.80;;;1.50;;
13807;SDS011;40769;51.512;5.494;2023-07-29T10:53:58;1.10;;;1.00;;
13807;SDS011;40769;51.512;5.494;2023-07-29T10:56:34;1.77;;;1.20;;
13807;SDS011;40769;51.512;5.494;2023-07-29T11:01:42;1.35;;;1.25;;
13807;SDS011;40769;51.512;5.494;2023-07-29T11:17:56;1.45;;;1.30;;
13807;SDS011;40769;51.512;5.494;2023-07-29T11:20:24;1.40;;;1.20;;
13807;SDS011;40769;51.512;5.494;2023-07-29T11:22:58;1.30;;;1.13;;
13807;SDS011;40769;51.512;5.494;2023-07-29T11:25:26;2.60;;;1.30;;
13807;SDS011;40769;51.512;5.494;2023-07-29T11:27:54;1.23;;;1.13;;
13807;SDS011;40769;51.512;5.494;2023-07-29T11:30:21;1.83;;;1.38;;
13807;SDS011;40769;51.512;5.494;2023-07-29T11:32:52;1.40;;;1.30;;
13807;SDS011;40769;51.512;5.494;2023-07-29T11:35:19;2.05;;;1.48;;
13807;SDS011;40769;51.512;5.494;2023-07-29T11:37:46;1.80;;;1.33;;
13807;SDS011;40769;51.512;5.494;2023-07-29T11:40:16;1.45;;;1.23;;
13807;SDS011;40769;51.512;5.494;2023-07-29T11:42:46;2.08;;;1.38;;
13807;SDS011;40769;51.512;5.494;2023-07-29T11:45:14;1.98;;;1.27;;
13807;SDS011;40769;51.512;5.494;2023-07-29T11:47:39;1.40;;;1.08;;
13807;SDS011;40769;51.512;5.494;2023-07-29T11:50:06;1.40;;;1.30;;
13807;SDS011;40769;51.512;5.494;2023-07-29T11:52:39;1.30;;;1.20;;
13807;SDS011;40769;51.512;5.494;2023-07-29T11:55:07;1.40;;;1.30;;
13807;SDS011;40769;51.512;5.494;2023-07-29T11:57:33;1.17;;;1.00;;
13807;SDS011;40769;51.512;5.494;2023-07-29T12:00:02;1.23;;;1.13;;
13807;SDS011;40769;51.512;5.494;2023-07-29T12:02:34;1.30;;;1.20;;
13807;SDS011;40769;51.512;5.494;2023-07-29T12:05:04;1.20;;;1.10;;
13807;SDS011;40769;51.512;5.494;2023-07-29T12:07:30;1.30;;;1.20;;
13807;SDS011;40769;51.512;5.494;2023-07-29T12:09:58;1.20;;;1.10;;
13807;SDS011;40769;51.512;5.494;2023-07-29T12:12:24;1.30;;;1.20;;
13807;SDS011;40769;51.512;5.494;2023-07-29T12:14:50;2.30;;;1.35;;
13807;SDS011;40769;51.512;5.494;2023-07-29T12:17:16;1.90;;;1.50;;
13807;SDS011;40769;51.512;5.494;2023-07-29T12:19:43;4.95;;;2.35;;
13807;SDS011;40769;51.512;5.494;2023-07-29T12:22:10;6.85;;;2.20;;
13807;SDS011;40769;51.512;5.494;2023-07-29T12:24:37;2.90;;;1.75;;
13807;SDS011;40769;51.512;5.494;2023-07-29T12:27:04;2.08;;;1.65;;
13807;SDS011;40769;51.512;5.494;2023-07-29T12:29:30;2.45;;;1.67;;
13807;SDS011;40769;51.512;5.494;2023-07-29T12:31:59;1.77;;;1.60;;
13807;SDS011;40769;51.512;5.494;2023-07-29T12:34:30;1.73;;;1.60;;
13807;SDS011;40769;51.512;5.494;2023-07-29T12:36:57;4.80;;;2.10;;
13807;SDS011;40769;51.512;5.494;2023-07-29T12:39:28;2.72;;;2.28;;
13807;SDS011;40769;51.512;5.494;2023-07-29T12:41:55;2.35;;;2.00;;
13807;SDS011;40769;51.512;5.494;2023-07-29T12:44:23;2.08;;;1.98;;
13807;SDS011;40769;51.512;5.494;2023-07-29T12:46:50;2.78;;;2.47;;
13807;SDS011;40769;51.512;5.494;2023-07-29T12:49:16;10.30;;;2.63;;
13807;SDS011;40769;51.512;5.494;2023-07-29T12:51:42;2.28;;;1.60;;
13807;SDS011;40769;51.512;5.494;2023-07-29T12:54:08;1.55;;;1.00;;
13807;SDS011;40769;51.512;5.494;2023-07-29T12:56:34;1.27;;;1.17;;
13807;SDS011;40769;51.512;5.494;2023-07-29T12:59:00;2.08;;;1.30;;
13807;SDS011;40769;51.512;5.494;2023-07-29T13:01:26;1.30;;;1.20;;
13807;SDS011;40769;51.512;5.494;2023-07-29T13:03:53;1.30;;;1.20;;
13807;SDS011;40769;51.512;5.494;2023-07-29T13:06:22;1.27;;;1.10;;
13807;SDS011;40769;51.512;5.494;2023-07-29T13:08:48;1.73;;;1.13;;
13807;SDS011;40769;51.512;5.494;2023-07-29T13:11:14;1.15;;;1.05;;
13807;SDS011;40769;51.512;5.494;2023-07-29T13:13:41;2.00;;;1.13;;
13807;SDS011;40769;51.512;5.494;2023-07-29T13:16:06;12.80;;;3.42;;
13807;SDS011;40769;51.512;5.494;2023-07-29T13:18:32;59.38;;;9.38;;
13807;SDS011;40769;51.512;5.494;2023-07-29T13:20:58;172.93;;;21.95;;
13807;SDS011;40769;51.512;5.494;2023-07-29T13:23:25;38.00;;;5.72;;
13807;SDS011;40769;51.512;5.494;2023-07-29T13:25:52;88.20;;;11.38;;
13807;SDS011;40769;51.512;5.494;2023-07-29T13:28:17;13.63;;;3.50;;
13807;SDS011;40769;51.512;5.494;2023-07-29T13:30:44;28.70;;;5.93;;
13807;SDS011;40769;51.512;5.494;2023-07-29T13:33:10;5.82;;;2.70;;
13807;SDS011;40769;51.512;5.494;2023-07-29T13:35:35;12.80;;;3.72;;
13807;SDS011;40769;51.512;5.494;2023-07-29T13:38:01;3.78;;;2.70;;
13807;SDS011;40769;51.512;5.494;2023-07-29T13:40:27;2.67;;;2.28;;
13807;SDS011;40769;51.512;5.494;2023-07-29T13:42:53;2.30;;;2.17;;
13807;SDS011;40769;51.512;5.494;2023-07-29T13:45:19;2.35;;;2.10;;
13807;SDS011;40769;51.512;5.494;2023-07-29T13:47:45;2.53;;;2.33;;
13807;SDS011;40769;51.512;5.494;2023-07-29T13:50:11;2.38;;;2.17;;
13807;SDS011;40769;51.512;5.494;2023-07-29T13:52:37;1.95;;;1.85;;
13807;SDS011;40769;51.512;5.494;2023-07-29T13:55:03;2.20;;;2.10;;
13807;SDS011;40769;51.512;5.494;2023-07-29T13:57:29;2.10;;;2.00;;
13807;SDS011;40769;51.512;5.494;2023-07-29T13:59:55;2.22;;;2.13;;
13807;SDS011;40769;51.512;5.494;2023-07-29T14:02:21;2.17;;;2.08;;
13807;SDS011;40769;51.512;5.494;2023-07-29T14:04:46;2.35;;;2.15;;
13807;SDS011;40769;51.512;5.494;2023-07-29T14:07:12;2.15;;;2.05;;
13807;SDS011;40769;51.512;5.494;2023-07-29T14:09:37;2.47;;;2.28;;
13807;SDS011;40769;51.512;5.494;2023-07-29T14:12:04;2.40;;;2.30;;
13807;SDS011;40769;51.512;5.494;2023-07-29T14:14:30;2.25;;;2.10;;
13807;SDS011;40769;51.512;5.494;2023-07-29T14:16:56;2.35;;;2.17;;
13807;SDS011;40769;51.512;5.494;2023-07-29T14:19:23;1.90;;;1.80;;
13807;SDS011;40769;51.512;5.494;2023-07-29T14:21:49;2.10;;;2.00;;
13807;SDS011;40769;51.512;5.494;2023-07-29T14:24:15;1.90;;;1.80;;
13807;SDS011;40769;51.512;5.494;2023-07-29T14:26:42;1.70;;;1.60;;
13807;SDS011;40769;51.512;5.494;2023-07-29T14:29:07;1.90;;;1.77;;
13807;SDS011;40769;51.512;5.494;2023-07-29T14:31:33;2.00;;;1.90;;
13807;SDS011;40769;51.512;5.494;2023-07-29T14:33:59;1.90;;;1.80;;
13807;SDS011;40769;51.512;5.494;2023-07-29T14:36:25;1.60;;;1.50;;
13807;SDS011;40769;51.512;5.494;2023-07-29T14:38:53;1.77;;;1.67;;
13807;SDS011;40769;51.512;5.494;2023-07-29T14:41:19;2.28;;;1.60;;
13807;SDS011;40769;51.512;5.494;2023-07-29T14:43:45;1.42;;;1.33;;
13807;SDS011;40769;51.512;5.494;2023-07-29T14:46:10;2.08;;;1.90;;
13807;SDS011;40769;51.512;5.494;2023-07-29T14:48:36;2.22;;;1.73;;
13807;SDS011;40769;51.512;5.494;2023-07-29T14:51:02;2.20;;;1.90;;
13807;SDS011;40769;51.512;5.494;2023-07-29T14:53:27;1.70;;;1.52;;
13807;SDS011;40769;51.512;5.494;2023-07-29T14:55:53;1.38;;;1.27;;
13807;SDS011;40769;51.512;5.494;2023-07-29T14:58:19;2.08;;;1.75;;
13807;SDS011;40769;51.512;5.494;2023-07-29T15:00:44;2.28;;;1.60;;
13807;SDS011;40769;51.512;5.494;2023-07-29T15:03:10;1.50;;;1.40;;
13807;SDS011;40769;51.512;5.494;2023-07-29T15:05:36;1.55;;;1.38;;
13807;SDS011;40769;51.512;5.494;2023-07-29T15:08:01;1.50;;;1.30;;
13807;SDS011;40769;51.512;5.494;2023-07-29T15:10:27;1.40;;;1.30;;
13807;SDS011;40769;51.512;5.494;2023-07-29T15:12:53;2.58;;;1.77;;
13807;SDS011;40769;51.512;5.494;2023-07-29T15:15:18;2.28;;;1.83;;
13807;SDS011;40769;51.512;5.494;2023-07-29T15:17:44;1.50;;;1.40;;